Time;durP1;ratioP1;P1;durP2;ratioP2;P2;SDS_P1;SDS_P2;PMS_P1;PMS_P2;Temp;Humidity;BMP_temperature;BMP_pressure;BME280_temperature;BME280_humidity;BME280_pressure;Samples;Min_cycle;Max_cycle;Signal;HPM_P1;HPM_P2
2021/10/27 00:02:05;;;;;;;;;;;3.00;99.90;;;;;;5094340;28;20408;-75
2021/10/27 00:04:30;;;;;;;;;;;3.00;99.90;;;;;;5094131;28;19965;-75
2021/10/27 00:06:56;;;;;;;;;;;3.00;99.90;;;;;;5094338;28;20010;-75
2021/10/27 00:09:21;;;;;;;;;;;3.00;99.90;;;;;;5093826;28;19962;-75
2021/10/27 00:11:47;;;;;;;;;;;3.10;99.90;;;;;;5094123;28;19923;-77
2021/10/27 00:14:12;;;;;;;;;;;3.00;99.90;;;;;;5093863;28;20002;-75
2021/10/27 00:16:38;;;;;;;;;;;2.80;99.90;;;;;;5094033;28;19908;-75
2021/10/27 00:19:03;;;;;;;;;;;2.80;99.90;;;;;;5094272;28;19908;-76
2021/10/27 00:21:29;;;;;;;;;;;3.00;99.90;;;;;;5075260;28;19916;-76
2021/10/27 00:23:55;;;;;;;;;;;3.20;99.90;;;;;;5093657;28;19912;-77
2021/10/27 00:26:20;;;;;;;;;;;3.10;99.90;;;;;;5093528;28;19908;-75
2021/10/27 00:28:46;;;;;;;;;;;3.10;99.90;;;;;;5089771;28;19908;-75
2021/10/27 00:31:12;;;;;;;;;;;3.30;99.90;;;;;;5093230;28;20382;-75
2021/10/27 00:33:37;;;;;;;;;;;3.50;99.90;;;;;;5093550;28;19919;-76
2021/10/27 00:36:04;;;;;;;;;;;3.60;99.90;;;;;;5093529;28;19914;-75
2021/10/27 00:38:29;;;;;;;;;;;3.30;99.90;;;;;;5093554;28;19961;-76
2021/10/27 00:40:55;;;;;;;;;;;2.90;99.90;;;;;;5093048;28;19908;-75
2021/10/27 00:43:20;;;;;;;;;;;2.90;99.90;;;;;;5093229;28;19915;-75
2021/10/27 00:45:46;;;;;;;;;;;2.80;99.90;;;;;;5093391;28;19912;-76
2021/10/27 00:48:11;;;;;;;;;;;2.70;99.90;;;;;;5093150;28;19991;-75
2021/10/27 00:50:37;;;;;;;;;;;2.80;99.90;;;;;;5092956;28;20502;-75
2021/10/27 00:53:03;;;;;;;;;;;2.80;99.90;;;;;;5093303;28;20280;-75
2021/10/27 00:55:28;;;;;;;;;;;3.00;99.90;;;;;;5093246;28;19961;-76
2021/10/27 00:57:54;;;;;;;;;;;2.80;99.90;;;;;;5084660;28;19909;-76
2021/10/27 01:00:20;;;;;;;;;;;2.80;99.90;;;;;;5091877;28;19915;-77
2021/10/27 01:02:46;;;;;;;;;;;2.90;99.90;;;;;;5074998;28;19997;-75
2021/10/27 01:05:13;;;;;;;;;;;2.70;99.90;;;;;;5092905;28;19912;-75
2021/10/27 01:07:38;;;;;;;;;;;2.70;99.90;;;;;;5092929;28;19908;-75
2021/10/27 01:10:04;;;;;;;;;;;2.60;99.90;;;;;;5074815;28;19938;-77
2021/10/27 01:12:30;;;;;;;;;;;2.60;99.90;;;;;;5093725;28;19909;-77
2021/10/27 01:14:55;;;;;;;;;;;2.50;99.90;;;;;;5092992;28;19916;-77
2021/10/27 01:17:21;;;;;;;;;;;2.50;99.90;;;;;;5092846;28;19966;-77
2021/10/27 01:19:47;;;;;;;;;;;2.50;99.90;;;;;;5092418;28;19912;-75
2021/10/27 01:22:13;;;;;;;;;;;2.40;99.90;;;;;;5092735;28;19908;-77
2021/10/27 01:24:39;;;;;;;;;;;2.40;99.90;;;;;;5092587;28;19912;-76
2021/10/27 01:27:04;;;;;;;;;;;2.30;99.90;;;;;;5089587;28;19930;-76
2021/10/27 01:29:30;;;;;;;;;;;2.20;99.90;;;;;;5090295;28;19908;-77
2021/10/27 01:31:55;;;;;;;;;;;2.20;99.90;;;;;;5089008;28;19915;-77
2021/10/27 01:34:21;;;;;;;;;;;2.30;99.90;;;;;;5092535;28;19908;-77
2021/10/27 01:36:46;;;;;;;;;;;2.40;99.90;;;;;;5092449;28;19919;-77
2021/10/27 01:39:12;;;;;;;;;;;2.60;99.90;;;;;;5092381;28;19908;-77
2021/10/27 01:41:37;;;;;;;;;;;2.70;99.90;;;;;;5091802;28;20068;-77
2021/10/27 01:44:03;;;;;;;;;;;3.00;99.90;;;;;;5092445;28;20289;-76
2021/10/27 01:46:35;;;;;;;;;;;3.00;99.90;;;;;;5074375;28;19915;-77
2021/10/27 01:49:02;;;;;;;;;;;2.60;99.90;;;;;;5092313;28;19908;-76
2021/10/27 01:51:28;;;;;;;;;;;2.30;99.90;;;;;;5092171;28;20352;-77
2021/10/27 01:53:54;;;;;;;;;;;2.20;99.90;;;;;;5092540;28;19915;-77
2021/10/27 01:56:20;;;;;;;;;;;2.00;99.90;;;;;;5091383;28;19908;-77
2021/10/27 01:58:46;;;;;;;;;;;2.10;99.90;;;;;;5070969;28;19904;-77
2021/10/27 02:01:11;;;;;;;;;;;1.90;99.90;;;;;;5092416;28;19978;-77
2021/10/27 02:03:37;;;;;;;;;;;1.80;99.90;;;;;;5093598;28;20007;-77
2021/10/27 02:06:03;;;;;;;;;;;1.90;99.90;;;;;;5093699;28;19969;-77
2021/10/27 02:08:28;;;;;;;;;;;1.90;99.90;;;;;;5093295;28;19915;-77
2021/10/27 02:10:54;;;;;;;;;;;2.00;99.90;;;;;;5092635;28;19920;-77
2021/10/27 02:13:19;;;;;;;;;;;1.90;99.90;;;;;;5093124;28;19908;-77
2021/10/27 02:15:45;;;;;;;;;;;1.80;99.90;;;;;;5093384;28;19908;-77
2021/10/27 02:18:11;;;;;;;;;;;1.80;99.90;;;;;;5093158;28;20347;-77
2021/10/27 02:20:36;;;;;;;;;;;1.90;99.90;;;;;;5092798;28;19964;-77
2021/10/27 02:23:02;;;;;;;;;;;2.10;99.90;;;;;;5092965;28;19908;-76
2021/10/27 02:25:28;;;;;;;;;;;2.10;99.90;;;;;;5093274;28;19911;-77
2021/10/27 02:27:53;;;;;;;;;;;2.20;99.90;;;;;;5084744;28;20278;-77
2021/10/27 02:30:18;;;;;;;;;;;1.90;99.90;;;;;;5086517;28;19915;-77
2021/10/27 02:32:45;;;;;;;;;;;1.90;99.90;;;;;;5092685;28;20259;-77
2021/10/27 02:35:10;;;;;;;;;;;2.30;99.90;;;;;;5092561;28;19908;-76
2021/10/27 02:37:36;;;;;;;;;;;2.30;99.90;;;;;;5074277;28;20011;-77
2021/10/27 02:40:02;;;;;;;;;;;2.30;99.90;;;;;;5092062;28;20277;-77
2021/10/27 02:42:27;;;;;;;;;;;2.60;99.90;;;;;;5092394;28;19912;-77
2021/10/27 02:44:53;;;;;;;;;;;2.70;99.90;;;;;;5092375;28;19966;-77
2021/10/27 02:47:19;;;;;;;;;;;2.90;99.90;;;;;;5092389;28;19944;-77
2021/10/27 02:49:44;;;;;;;;;;;2.80;99.90;;;;;;5074168;28;19908;-77
2021/10/27 02:52:10;;;;;;;;;;;2.80;99.90;;;;;;5092570;28;19908;-77
2021/10/27 02:54:35;;;;;;;;;;;2.90;99.90;;;;;;5074102;28;19916;-76
2021/10/27 02:57:01;;;;;;;;;;;3.00;99.90;;;;;;5071523;28;19954;-76
2021/10/27 02:59:26;;;;;;;;;;;2.70;99.90;;;;;;5089560;28;19908;-77
2021/10/27 03:01:52;;;;;;;;;;;2.50;99.90;;;;;;5091530;28;19998;-77
2021/10/27 03:04:17;;;;;;;;;;;2.30;99.90;;;;;;5092017;28;20070;-77
2021/10/27 03:06:43;;;;;;;;;;;2.10;99.90;;;;;;5073578;28;19908;-77
2021/10/27 03:09:08;;;;;;;;;;;2.00;99.90;;;;;;5091656;28;19911;-77
2021/10/27 03:11:34;;;;;;;;;;;1.80;99.90;;;;;;5091529;28;19943;-77
2021/10/27 03:13:59;;;;;;;;;;;1.70;99.90;;;;;;5095949;28;19944;-76
2021/10/27 03:16:25;;;;;;;;;;;1.70;99.90;;;;;;5095692;28;19908;-77
2021/10/27 03:18:50;;;;;;;;;;;1.60;99.90;;;;;;5095930;28;19912;-77
2021/10/27 03:21:16;;;;;;;;;;;1.60;99.90;;;;;;5095663;28;20369;-76
2021/10/27 03:23:41;;;;;;;;;;;1.60;99.90;;;;;;5096003;28;19915;-77
2021/10/27 03:26:07;;;;;;;;;;;1.70;99.90;;;;;;5094887;28;19981;-77
2021/10/27 03:28:32;;;;;;;;;;;1.90;99.90;;;;;;5089243;28;19908;-77
2021/10/27 03:30:58;;;;;;;;;;;1.90;99.90;;;;;;5095322;28;20423;-76
2021/10/27 03:33:24;;;;;;;;;;;2.00;99.90;;;;;;5095750;28;20461;-77
2021/10/27 03:35:50;;;;;;;;;;;1.90;99.90;;;;;;5095997;28;20175;-77
2021/10/27 03:38:16;;;;;;;;;;;1.70;99.90;;;;;;5095335;28;20287;-76
2021/10/27 03:40:43;;;;;;;;;;;1.70;99.90;;;;;;5094994;28;19914;-77
2021/10/27 03:43:08;;;;;;;;;;;1.80;99.90;;;;;;5076911;28;20278;-77
2021/10/27 03:45:34;;;;;;;;;;;1.60;99.90;;;;;;5077060;28;19916;-76
2021/10/27 03:47:59;;;;;;;;;;;1.70;99.90;;;;;;5077044;28;19908;-77
2021/10/27 03:50:25;;;;;;;;;;;1.70;99.90;;;;;;5094855;28;20386;-77
2021/10/27 03:52:51;;;;;;;;;;;1.60;99.90;;;;;;5094740;28;19938;-76
2021/10/27 03:55:17;;;;;;;;;;;1.60;99.90;;;;;;5095040;28;20008;-77
2021/10/27 03:57:42;;;;;;;;;;;1.60;99.90;;;;;;5070202;28;20270;-76
2021/10/27 04:00:08;;;;;;;;;;;1.40;99.90;;;;;;5091750;28;19908;-77
2021/10/27 04:02:40;;;;;;;;;;;1.30;99.90;;;;;;5095138;28;19918;-77
2021/10/27 04:05:06;;;;;;;;;;;1.40;99.90;;;;;;5095128;28;19955;-77
2021/10/27 04:07:36;;;;;;;;;;;1.30;99.90;;;;;;5076741;28;19908;-77
2021/10/27 04:10:09;;;;;;;;;;;1.30;99.90;;;;;;5094404;28;20309;-77
2021/10/27 04:12:36;;;;;;;;;;;1.30;99.90;;;;;;5095084;28;20412;-76
2021/10/27 04:15:03;;;;;;;;;;;1.30;99.90;;;;;;5076796;28;19947;-77
2021/10/27 04:17:29;;;;;;;;;;;1.40;99.90;;;;;;5094718;28;20335;-75
2021/10/27 04:19:54;;;;;;;;;;;1.50;99.90;;;;;;5093978;28;19915;-76
2021/10/27 04:22:20;;;;;;;;;;;1.40;99.90;;;;;;5093624;28;19908;-77
2021/10/27 04:24:45;;;;;;;;;;;1.30;99.90;;;;;;5094199;28;19919;-77
2021/10/27 04:27:11;;;;;;;;;;;1.20;99.90;;;;;;5090614;28;19917;-75
2021/10/27 04:29:36;;;;;;;;;;;1.10;99.90;;;;;;5093135;28;19923;-77
2021/10/27 04:32:02;;;;;;;;;;;1.20;99.90;;;;;;5093883;28;20333;-77
2021/10/27 04:34:27;;;;;;;;;;;1.20;99.90;;;;;;5094088;28;19912;-76
2021/10/27 04:36:53;;;;;;;;;;;1.20;99.90;;;;;;5076233;28;20008;-77
2021/10/27 04:39:19;;;;;;;;;;;1.20;99.90;;;;;;5076357;28;20119;-77
2021/10/27 04:41:44;;;;;;;;;;;1.10;99.90;;;;;;5094303;28;19914;-76
2021/10/27 04:44:10;;;;;;;;;;;1.10;99.90;;;;;;5094405;28;19912;-77
2021/10/27 04:46:35;;;;;;;;;;;1.10;99.90;;;;;;5076465;28;19990;-77
2021/10/27 04:49:01;;;;;;;;;;;1.20;99.90;;;;;;5076142;28;20319;-77
2021/10/27 04:51:26;;;;;;;;;;;1.30;99.90;;;;;;5093331;28;19908;-77
2021/10/27 04:53:51;;;;;;;;;;;1.30;99.90;;;;;;5094124;28;19909;-75
2021/10/27 04:56:17;;;;;;;;;;;1.20;99.90;;;;;;5092194;28;19912;-77
2021/10/27 04:58:43;;;;;;;;;;;1.40;99.90;;;;;;5081964;28;19969;-77
2021/10/27 05:01:08;;;;;;;;;;;1.50;99.90;;;;;;5094606;28;19908;-77
2021/10/27 05:03:34;;;;;;;;;;;1.50;99.90;;;;;;5094146;28;19918;-77
2021/10/27 05:06:01;;;;;;;;;;;1.50;99.90;;;;;;5075886;28;19969;-77
2021/10/27 05:08:30;;;;;;;;;;;1.70;99.90;;;;;;5088483;28;19912;-77
2021/10/27 05:10:56;;;;;;;;;;;1.60;99.90;;;;;;5087843;28;19923;-77
2021/10/27 05:13:21;;;;;;;;;;;1.40;99.90;;;;;;5094177;28;19908;-77
2021/10/27 05:15:47;;;;;;;;;;;1.40;99.90;;;;;;5087750;28;20517;-77
2021/10/27 05:18:13;;;;;;;;;;;1.60;99.90;;;;;;5076059;28;19908;-77
2021/10/27 05:20:39;;;;;;;;;;;1.60;99.90;;;;;;5075669;28;20328;-76
2021/10/27 05:23:04;;;;;;;;;;;1.60;99.90;;;;;;5094407;28;19929;-77
2021/10/27 05:25:30;;;;;;;;;;;1.60;99.90;;;;;;5075654;28;19919;-77
2021/10/27 05:27:55;;;;;;;;;;;1.30;99.90;;;;;;5086938;28;19934;-77
2021/10/27 05:30:21;;;;;;;;;;;1.20;99.90;;;;;;5092013;28;19908;-76
2021/10/27 05:32:46;;;;;;;;;;;1.20;99.90;;;;;;5075637;28;19962;-77
2021/10/27 05:35:12;;;;;;;;;;;1.10;99.90;;;;;;5092819;28;19909;-77
2021/10/27 05:37:38;;;;;;;;;;;1.20;99.90;;;;;;5095094;28;19912;-77
2021/10/27 05:40:03;;;;;;;;;;;1.30;99.90;;;;;;5094288;28;19908;-77
2021/10/27 05:42:30;;;;;;;;;;;1.30;99.90;;;;;;5095205;28;19908;-77
2021/10/27 05:44:57;;;;;;;;;;;1.30;99.90;;;;;;5076631;28;19920;-77
2021/10/27 05:47:23;;;;;;;;;;;1.10;99.90;;;;;;5077225;28;19916;-77
2021/10/27 05:57:30;;;;;;;;;;;1.00;99.90;;;;;;5089950;28;19915;-74
2021/10/27 05:59:56;;;;;;;;;;;0.90;99.90;;;;;;5086539;28;19931;-75
2021/10/27 06:02:21;;;;;;;;;;;0.90;99.90;;;;;;5073520;28;20347;-76
2021/10/27 06:04:47;;;;;;;;;;;0.90;99.90;;;;;;5092135;28;19916;-76
2021/10/27 06:07:12;;;;;;;;;;;0.90;99.90;;;;;;5092221;28;20294;-76
2021/10/27 06:09:38;;;;;;;;;;;0.80;99.90;;;;;;5091605;28;19912;-74
2021/10/27 06:12:05;;;;;;;;;;;0.80;99.90;;;;;;5073753;28;19908;-76
2021/10/27 06:14:31;;;;;;;;;;;0.70;99.90;;;;;;5091886;28;19908;-76
2021/10/27 06:16:57;;;;;;;;;;;0.80;99.90;;;;;;5085958;28;19912;-76
2021/10/27 06:19:23;;;;;;;;;;;0.90;99.90;;;;;;5089560;28;19909;-76
2021/10/27 06:21:49;;;;;;;;;;;1.00;99.90;;;;;;5091926;28;19916;-76
2021/10/27 06:24:14;;;;;;;;;;;1.10;99.90;;;;;;5089465;28;19957;-76
2021/10/27 06:26:40;;;;;;;;;;;1.20;99.90;;;;;;5068911;28;19909;-76
2021/10/27 06:29:13;;;;;;;;;;;1.30;99.90;;;;;;5080077;28;19997;-76
2021/10/27 06:31:43;;;;;;;;;;;1.30;99.90;;;;;;5085416;28;19908;-76
2021/10/27 06:34:34;;;;;;;;;;;1.50;99.90;;;;;;5088987;28;19912;-76
2021/10/27 06:37:22;;;;;;;;;;;1.40;99.90;;;;;;5086551;28;19908;-75
2021/10/27 06:48:00;;;;;;;;;;;1.60;99.90;;;;;;5088217;28;20054;-76
2021/10/27 06:50:26;;;;;;;;;;;1.80;99.90;;;;;;5091855;28;20392;-76
2021/10/27 06:52:52;;;;;;;;;;;1.90;99.90;;;;;;5068255;28;20022;-76
2021/10/27 06:55:17;;;;;;;;;;;2.00;99.90;;;;;;5087908;28;20469;-76
2021/10/27 06:57:43;;;;;;;;;;;2.10;99.90;;;;;;5082940;28;19915;-75
2021/10/27 07:16:27;;;;;;;;;;;2.70;99.90;;;;;;5091339;28;19915;-76
2021/10/27 07:18:52;;;;;;;;;;;2.80;99.90;;;;;;5088555;28;19909;-76
2021/10/27 07:21:19;;;;;;;;;;;2.80;99.90;;;;;;5081459;28;19912;-76
2021/10/27 07:23:44;;;;;;;;;;;2.90;99.90;;;;;;5072667;28;19908;-76
2021/10/27 07:26:10;;;;;;;;;;;2.90;99.90;;;;;;5088605;28;20428;-76
2021/10/27 07:28:35;;;;;;;;;;;3.20;99.90;;;;;;5081933;28;19908;-76
2021/10/27 07:31:03;;;;;;;;;;;3.30;99.90;;;;;;5086777;28;19908;-75
2021/10/27 07:33:29;;;;;;;;;;;3.40;99.90;;;;;;5083300;28;19912;-75
2021/10/27 07:36:02;;;;;;;;;;;3.50;99.90;;;;;;5078372;28;19908;-76
2021/10/27 07:41:11;;;;;;;;;;;4.00;99.90;;;;;;5087384;28;19915;-76
2021/10/27 07:43:37;;;;;;;;;;;4.10;99.90;;;;;;5083252;28;19912;-76
2021/10/27 07:46:03;;;;;;;;;;;4.20;99.90;;;;;;5061626;28;20598;-75
2021/10/27 07:48:29;;;;;;;;;;;4.40;99.90;;;;;;5077577;28;19912;-75
2021/10/27 07:50:57;;;;;;;;;;;4.50;99.90;;;;;;5083247;28;19909;-76
2021/10/27 07:53:22;;;;;;;;;;;4.70;99.90;;;;;;5087719;28;20309;-75
2021/10/27 07:55:50;;;;;;;;;;;4.70;99.90;;;;;;5063727;28;19912;-76
2021/10/27 07:58:16;;;;;;;;;;;4.90;99.90;;;;;;5066482;28;19909;-76
2021/10/27 08:00:42;;;;;;;;;;;5.00;99.90;;;;;;5087826;28;19914;-76
2021/10/27 08:03:08;;;;;;;;;;;5.20;99.90;;;;;;5088148;28;19999;-76
2021/10/27 08:05:37;;;;;;;;;;;5.30;99.90;;;;;;5094441;28;19912;-76
2021/10/27 08:08:02;;;;;;;;;;;5.50;99.90;;;;;;5094735;28;19912;-76
2021/10/27 08:10:29;;;;;;;;;;;5.80;99.90;;;;;;5094318;28;20126;-76
2021/10/27 08:12:55;;;;;;;;;;;6.10;99.90;;;;;;5094729;28;19908;-76
2021/10/27 08:15:21;;;;;;;;;;;6.90;99.90;;;;;;5075936;28;20023;-75
2021/10/27 08:17:47;;;;;;;;;;;8.20;99.90;;;;;;5094015;28;19912;-77
2021/10/27 08:20:14;;;;;;;;;;;9.60;99.90;;;;;;5093568;28;19915;-77
2021/10/27 08:22:42;;;;;;;;;;;10.80;99.90;;;;;;5094009;28;19908;-76
2021/10/27 08:25:15;;;;;;;;;;;11.50;99.90;;;;;;5093749;28;20015;-76
2021/10/27 08:27:41;;;;;;;;;;;12.50;99.90;;;;;;5090069;28;20134;-77
2021/10/27 08:30:08;;;;;;;;;;;13.30;99.90;;;;;;5068923;28;20017;-77
2021/10/27 08:32:52;;;;;;;;;;;13.50;99.90;;;;;;5093866;28;20009;-76
2021/10/27 08:35:18;;;;;;;;;;;13.90;99.90;;;;;;5093888;28;20389;-77
2021/10/27 08:37:46;;;;;;;;;;;14.20;99.90;;;;;;5093892;28;19908;-76
2021/10/27 08:40:11;;;;;;;;;;;14.60;99.90;;;;;;5093227;28;19908;-77
2021/10/27 08:42:39;;;;;;;;;;;14.90;99.90;;;;;;5093370;28;19930;-77
2021/10/27 08:45:05;;;;;;;;;;;15.20;99.90;;;;;;5093355;28;19917;-77
2021/10/27 08:47:32;;;;;;;;;;;15.60;99.90;;;;;;5077765;28;19916;-76
2021/10/27 08:49:58;;;;;;;;;;;16.40;99.90;;;;;;5090507;28;20385;-77
2021/10/27 08:52:24;;;;;;;;;;;17.60;99.90;;;;;;5093368;28;19908;-76
2021/10/27 08:54:49;;;;;;;;;;;17.50;99.80;;;;;;5093531;28;20303;-77
2021/10/27 08:57:17;;;;;;;;;;;17.90;99.70;;;;;;5088218;28;20286;-77
2021/10/27 09:16:22;;;;;;;;;;;19.00;97.30;;;;;;5093167;28;19912;-77
2021/10/27 09:36:12;;;;;;;;;;;21.90;92.30;;;;;;5094539;28;19915;-78
2021/10/27 09:44:42;;;;;;;;;;;22.70;91.30;;;;;;5093824;28;19908;-78
2021/10/27 10:06:20;;;;;;;;;;;22.10;89.10;;;;;;5093876;28;19918;-78
2021/10/27 10:08:46;;;;;;;;;;;21.00;91.70;;;;;;5088035;28;19915;-78
2021/10/27 10:11:12;;;;;;;;;;;20.70;91.80;;;;;;5092547;28;19916;-78
2021/10/27 10:13:40;;;;;;;;;;;20.00;91.60;;;;;;5092210;28;19939;-77
2021/10/27 10:16:06;;;;;;;;;;;19.30;94.20;;;;;;5074062;28;19934;-76
2021/10/27 10:18:33;;;;;;;;;;;19.80;92.50;;;;;;5092226;28;19912;-77
2021/10/27 10:21:00;;;;;;;;;;;18.90;94.40;;;;;;5090373;28;20401;-76
2021/10/27 10:23:27;;;;;;;;;;;19.10;94.30;;;;;;5091832;28;19969;-77
2021/10/27 10:25:56;;;;;;;;;;;18.40;94.80;;;;;;5073429;28;20438;-76
2021/10/27 10:28:26;;;;;;;;;;;19.20;94.30;;;;;;5067918;28;19908;-77
2021/10/27 10:30:57;;;;;;;;;;;18.10;96.10;;;;;;5091046;28;20285;-77
2021/10/27 10:33:35;;;;;;;;;;;18.10;96.40;;;;;;5087795;28;19909;-77
2021/10/27 10:38:28;;;;;;;;;;;18.50;95.10;;;;;;5091586;28;20061;-77
2021/10/27 10:41:04;;;;;;;;;;;17.20;96.60;;;;;;5091174;28;19908;-77
2021/10/27 11:00:36;;;;;;;;;;;15.00;99.90;;;;;;5086437;28;19908;-77
2021/10/27 11:39:52;;;;;;;;;;;13.30;99.90;;;;;;5094971;28;20396;-77
2021/10/27 11:42:11;;;;;;;;;;;13.10;99.90;;;;;;5080721;28;19912;-77
2021/10/27 11:44:53;;;;;;;;;;;13.00;99.90;;;;;;5094866;28;20054;-76
2021/10/27 11:47:32;;;;;;;;;;;13.20;99.90;;;;;;5082814;28;19912;-77
2021/10/27 11:49:58;;;;;;;;;;;13.20;99.90;;;;;;5088014;28;19912;-77
2021/10/27 11:52:31;;;;;;;;;;;13.30;99.90;;;;;;5094893;28;19919;-77
2021/10/27 11:54:57;;;;;;;;;;;13.40;99.90;;;;;;5094701;28;19908;-75
2021/10/27 11:57:27;;;;;;;;;;;13.40;99.90;;;;;;5093511;28;19912;-77
2021/10/27 11:59:52;;;;;;;;;;;13.50;99.90;;;;;;5092080;28;20007;-77
2021/10/27 12:02:19;;;;;;;;;;;13.60;99.90;;;;;;5086974;28;20041;-77
2021/10/27 12:04:45;;;;;;;;;;;13.60;99.90;;;;;;5073636;28;19978;-77
2021/10/27 12:17:59;;;;;;;;;;;13.10;99.90;;;;;;5094125;28;19908;-77
2021/10/27 12:20:32;;;;;;;;;;;13.50;99.90;;;;;;5093754;28;19912;-77
2021/10/27 12:22:58;;;;;;;;;;;13.20;99.90;;;;;;5093967;28;19920;-77
2021/10/27 12:25:24;;;;;;;;;;;13.40;99.90;;;;;;5075259;28;19912;-76
2021/10/27 12:27:49;;;;;;;;;;;13.30;99.90;;;;;;5090821;28;20266;-77
2021/10/27 12:30:15;;;;;;;;;;;13.20;99.90;;;;;;5093132;28;19908;-77
2021/10/27 12:32:48;;;;;;;;;;;13.50;99.90;;;;;;5093815;28;20085;-77
2021/10/27 12:35:14;;;;;;;;;;;13.50;99.90;;;;;;5093655;28;20466;-77
2021/10/27 12:40:40;;;;;;;;;;;13.50;99.90;;;;;;5092853;28;19908;-77
2021/10/27 12:43:08;;;;;;;;;;;13.60;99.90;;;;;;5092737;28;19919;-77
2021/10/27 12:45:35;;;;;;;;;;;13.40;99.90;;;;;;5074021;28;19920;-76
2021/10/27 12:48:02;;;;;;;;;;;13.20;99.90;;;;;;5089462;28;19999;-77
2021/10/27 12:50:27;;;;;;;;;;;13.30;99.90;;;;;;5091630;28;19912;-77
2021/10/27 12:52:58;;;;;;;;;;;13.20;99.90;;;;;;5094008;28;19912;-77
2021/10/27 12:55:23;;;;;;;;;;;13.20;99.90;;;;;;5093432;28;19916;-77
2021/10/27 12:57:53;;;;;;;;;;;13.20;99.90;;;;;;5089135;28;19909;-77
2021/10/27 13:00:20;;;;;;;;;;;13.30;99.90;;;;;;5092891;28;19912;-76
2021/10/27 13:02:59;;;;;;;;;;;13.30;99.90;;;;;;5093354;28;19946;-77
2021/10/27 13:05:31;;;;;;;;;;;13.30;99.90;;;;;;5094190;28;19912;-77
2021/10/27 13:08:04;;;;;;;;;;;13.40;99.90;;;;;;5093277;28;19908;-77
2021/10/27 13:10:46;;;;;;;;;;;13.50;99.90;;;;;;5092494;28;19920;-77
2021/10/27 13:13:26;;;;;;;;;;;13.40;99.90;;;;;;5088335;28;20252;-77
2021/10/27 13:15:55;;;;;;;;;;;13.30;99.90;;;;;;5076362;28;19908;-80
2021/10/27 13:18:50;;;;;;;;;;;13.50;99.90;;;;;;5094566;28;20361;-77
2021/10/27 13:32:00;;;;;;;;;;;13.30;99.90;;;;;;5093608;28;20274;-76
2021/10/27 13:34:26;;;;;;;;;;;13.40;99.90;;;;;;5093264;28;20290;-76
2021/10/27 13:36:52;;;;;;;;;;;13.40;99.90;;;;;;5092510;28;19908;-76
2021/10/27 13:39:18;;;;;;;;;;;13.20;99.90;;;;;;5074033;28;19970;-76
2021/10/27 13:41:49;;;;;;;;;;;13.50;99.90;;;;;;5092185;28;20282;-76
2021/10/27 13:44:19;;;;;;;;;;;13.50;99.90;;;;;;5092480;28;19961;-77
2021/10/27 14:14:33;;;;;;;;;;;13.10;99.90;;;;;;5092601;28;20397;-77
2021/10/27 15:50:39;;;;;;;;;;;11.50;99.90;;;;;;5092838;28;19916;-77
2021/10/27 15:53:04;;;;;;;;;;;11.10;99.90;;;;;;5097910;28;19915;-77
2021/10/27 15:55:30;;;;;;;;;;;10.80;99.90;;;;;;5097635;28;19916;-77
2021/10/27 15:57:55;;;;;;;;;;;10.70;99.90;;;;;;5091709;28;19994;-77
2021/10/27 16:00:22;;;;;;;;;;;10.40;99.90;;;;;;5095917;28;19988;-76
2021/10/27 16:02:48;;;;;;;;;;;10.20;99.90;;;;;;5091464;28;19999;-77
2021/10/27 16:05:13;;;;;;;;;;;10.20;99.90;;;;;;5092463;28;20560;-77
2021/10/27 16:07:41;;;;;;;;;;;10.20;99.90;;;;;;5092750;28;19908;-75
2021/10/27 16:10:17;;;;;;;;;;;10.00;99.90;;;;;;5072825;28;20281;-77
2021/10/27 16:12:43;;;;;;;;;;;9.80;99.90;;;;;;5096468;28;20425;-76
2021/10/27 16:15:14;;;;;;;;;;;9.60;99.90;;;;;;5095479;28;19912;-77
2021/10/27 16:17:40;;;;;;;;;;;9.40;99.90;;;;;;5078335;28;19951;-75
2021/10/27 16:20:06;;;;;;;;;;;9.20;99.90;;;;;;5092967;28;20005;-77
2021/10/27 16:22:32;;;;;;;;;;;9.10;99.90;;;;;;5094289;28;20002;-77
2021/10/27 16:24:57;;;;;;;;;;;9.00;99.90;;;;;;5075910;28;20416;-77
2021/10/27 16:27:23;;;;;;;;;;;9.10;99.90;;;;;;5085311;28;20210;-77
2021/10/27 16:29:48;;;;;;;;;;;8.90;99.90;;;;;;5087190;28;19971;-77
2021/10/27 16:32:14;;;;;;;;;;;8.90;99.90;;;;;;5094081;28;19924;-77
2021/10/27 16:34:40;;;;;;;;;;;8.70;99.90;;;;;;5093952;28;19916;-77
2021/10/27 16:37:06;;;;;;;;;;;8.70;99.90;;;;;;5094059;28;19908;-76
2021/10/27 16:39:31;;;;;;;;;;;8.60;99.90;;;;;;5093616;28;19908;-77
2021/10/27 16:41:57;;;;;;;;;;;8.60;99.90;;;;;;5093595;28;20002;-77
2021/10/27 16:44:23;;;;;;;;;;;8.30;99.90;;;;;;5093790;28;19912;-77
2021/10/27 16:46:49;;;;;;;;;;;8.20;99.90;;;;;;5075649;28;19908;-77
2021/10/27 16:49:16;;;;;;;;;;;8.20;99.90;;;;;;5075429;28;19908;-76
2021/10/27 16:51:42;;;;;;;;;;;8.00;99.90;;;;;;5093780;28;19908;-77
2021/10/27 16:54:07;;;;;;;;;;;8.00;99.90;;;;;;5094381;28;19961;-77
2021/10/27 16:56:33;;;;;;;;;;;7.80;99.90;;;;;;5090940;28;19909;-77
2021/10/27 16:58:59;;;;;;;;;;;7.80;99.90;;;;;;5093809;28;19934;-76
2021/10/27 17:01:24;;;;;;;;;;;7.80;99.90;;;;;;5075139;28;19943;-77
2021/10/27 17:03:50;;;;;;;;;;;7.80;99.90;;;;;;5075737;28;19915;-77
2021/10/27 17:06:16;;;;;;;;;;;7.70;99.90;;;;;;5075429;28;19962;-77
2021/10/27 17:08:42;;;;;;;;;;;7.70;99.90;;;;;;5075199;28;20354;-77
2021/10/27 17:11:08;;;;;;;;;;;7.50;99.90;;;;;;5074823;28;20324;-77
2021/10/27 17:13:34;;;;;;;;;;;7.50;99.90;;;;;;5093182;28;19908;-77
2021/10/27 17:15:59;;;;;;;;;;;7.40;99.90;;;;;;5093183;28;19908;-76
2021/10/27 17:18:29;;;;;;;;;;;7.40;99.90;;;;;;5093113;28;19952;-75
2021/10/27 17:20:55;;;;;;;;;;;7.20;99.90;;;;;;5074366;28;19959;-76
2021/10/27 17:23:27;;;;;;;;;;;7.20;99.90;;;;;;5092921;28;19908;-77
2021/10/27 17:25:53;;;;;;;;;;;7.10;99.90;;;;;;5093193;28;19912;-76
2021/10/27 17:28:18;;;;;;;;;;;7.20;99.90;;;;;;5087395;28;19915;-77
2021/10/27 17:30:47;;;;;;;;;;;7.20;99.90;;;;;;5090703;28;19908;-76
2021/10/27 17:33:12;;;;;;;;;;;7.10;99.90;;;;;;5093070;28;19908;-77
2021/10/27 17:35:38;;;;;;;;;;;7.00;99.90;;;;;;5092655;28;20380;-76
2021/10/27 17:38:04;;;;;;;;;;;6.80;99.90;;;;;;5092708;28;19915;-76
2021/10/27 17:40:33;;;;;;;;;;;6.70;99.90;;;;;;5092357;28;20436;-76
2021/10/27 17:42:59;;;;;;;;;;;6.50;99.90;;;;;;5092691;28;19908;-77
2021/10/27 17:45:39;;;;;;;;;;;6.50;99.90;;;;;;5074429;28;19912;-77
2021/10/27 17:48:18;;;;;;;;;;;6.30;99.90;;;;;;5092520;28;19908;-77
2021/10/27 17:58:35;;;;;;;;;;;6.20;99.90;;;;;;5079190;28;19919;-76
2021/10/27 18:01:03;;;;;;;;;;;6.20;99.90;;;;;;5091752;28;19912;-76
2021/10/27 18:03:30;;;;;;;;;;;6.20;99.90;;;;;;5074345;28;19912;-77
2021/10/27 18:05:56;;;;;;;;;;;6.00;99.90;;;;;;5092430;28;19912;-77
2021/10/27 18:08:23;;;;;;;;;;;6.00;99.90;;;;;;5092687;28;19999;-75
2021/10/27 18:10:55;;;;;;;;;;;5.90;99.90;;;;;;5091969;28;19920;-76
2021/10/27 18:13:26;;;;;;;;;;;5.90;99.90;;;;;;5073719;28;19908;-76
2021/10/27 18:15:59;;;;;;;;;;;5.80;99.90;;;;;;5085783;28;20374;-76
2021/10/27 18:18:34;;;;;;;;;;;5.80;99.90;;;;;;5091973;28;19933;-76
2021/10/27 18:21:00;;;;;;;;;;;5.80;99.90;;;;;;5091513;28;19908;-76
2021/10/27 18:23:55;;;;;;;;;;;5.80;99.90;;;;;;5092023;28;19908;-76
2021/10/27 18:26:44;;;;;;;;;;;5.80;99.90;;;;;;5072866;28;20382;-75
2021/10/27 18:37:32;;;;;;;;;;;5.80;99.90;;;;;;5083607;28;19969;-76
2021/10/27 18:42:37;;;;;;;;;;;5.70;99.90;;;;;;5091644;28;19955;-75
2021/10/27 18:45:04;;;;;;;;;;;5.70;99.90;;;;;;5091813;28;19916;-76
2021/10/27 18:47:31;;;;;;;;;;;5.60;99.90;;;;;;5091982;28;19978;-75
2021/10/27 18:49:57;;;;;;;;;;;5.50;99.90;;;;;;5091312;28;20283;-76
2021/10/27 18:55:02;;;;;;;;;;;5.40;99.90;;;;;;5091629;28;19912;-76
2021/10/27 19:00:09;;;;;;;;;;;5.40;99.90;;;;;;5089577;28;19908;-76
2021/10/27 19:03:11;;;;;;;;;;;5.50;99.90;;;;;;5091748;28;19912;-74
2021/10/27 19:15:59;;;;;;;;;;;5.40;99.90;;;;;;5091021;28;20378;-76
2021/10/27 19:18:24;;;;;;;;;;;5.00;99.90;;;;;;5091198;28;19912;-75
2021/10/27 19:20:52;;;;;;;;;;;5.10;99.90;;;;;;5090491;28;19919;-76
2021/10/27 19:23:19;;;;;;;;;;;5.00;99.90;;;;;;5091147;28;19955;-75
2021/10/27 19:30:58;;;;;;;;;;;4.70;99.90;;;;;;5090682;28;19909;-77
2021/10/27 19:34:02;;;;;;;;;;;4.60;99.90;;;;;;5091136;28;19908;-76
2021/10/27 20:06:47;;;;;;;;;;;4.30;99.90;;;;;;5090139;28;19919;-75
2021/10/27 20:09:25;;;;;;;;;;;4.50;99.90;;;;;;5076034;28;19915;-75
2021/10/27 20:25:53;;;;;;;;;;;4.30;99.90;;;;;;5094129;28;19992;-75
2021/10/27 20:48:33;;;;;;;;;;;4.30;99.90;;;;;;5088116;28;19967;-75
2021/10/27 20:55:28;;;;;;;;;;;4.30;99.90;;;;;;5093494;28;19912;-75
2021/10/27 21:00:45;;;;;;;;;;;4.00;99.90;;;;;;5090735;28;19908;-75
2021/10/27 21:13:57;;;;;;;;;;;3.30;99.90;;;;;;5093274;28;19980;-75
2021/10/27 21:16:23;;;;;;;;;;;3.50;99.90;;;;;;5093021;28;19944;-77
2021/10/27 21:18:48;;;;;;;;;;;3.40;99.90;;;;;;5074675;28;19912;-75
2021/10/27 21:21:14;;;;;;;;;;;3.40;99.90;;;;;;5092759;28;19908;-75
2021/10/27 21:23:39;;;;;;;;;;;3.40;99.90;;;;;;5092962;28;20353;-75
2021/10/27 21:26:05;;;;;;;;;;;3.20;99.90;;;;;;5092730;28;19981;-76